Scottsdale, AZ

6:07 PM MST on August 29, 2014 (GMT -0700)
Central Scottsdale, AZ | Change Station
CLOSE
Current Station
Personal Weather Station
Location: Scottsdale, AZ
Elevation: 1266 ft
Nearby Weather Stations

Elev 1266 ft 33.51 °N, 111.89 °W | Updated 10 seconds ago

Clear
Clear
103.3 °F
Feels Like 99 °F
N
1.0
Wind Variable Wind from WNW
Gusts 5.0 mph

Today
High -- | Low -- °F
--% Chance of Precip.
Yesterday
High -- | Low -- °F
Precip. -- in
5:59 AM 6:56 PM
Waxing Crescent, 18% visible
Pressure 29.66 in
Visibility 10.0 miles
Clouds Clear
Heat Index 99 °F
Dew Point 45 °F
Humidity 14%
Rainfall 0.00 in
Snow Depth Not available.
UV 1 out of 12
Pollen 5.60 out of 12
PM2.5 Good
Flu Activity Not available.
METAR KSDL 300053Z 27004KT 10SM CLR 40/04 A2974 RMK AO2 SLP042 T04000044

More Conditions Fewer Conditions

Pressure 29.66 in
Visibility 10.0 miles
Clouds Clear
Heat Index 99 °F
Dew Point 45 °F
Humidity 14%
Rainfall 0.00 in
Snow Depth Not available.
UV 1 out of 12
Pollen 5.60 out of 12
PM2.5 Good
Flu Activity Not available.
METAR KSDL 300053Z 27004KT 10SM CLR 40/04 A2974 RMK AO2 SLP042 T04000044

More Conditions Fewer Conditions

10-Day Weather Forecast

Almanac

Astronomy

Aug. 29, 2014 Rise Set
Actual Time 5:59 AM MST 6:56 PM MST
Civil Twilight 5:34 AM MST 7:22 PM MST
Nautical Twilight 5:03 AM MST 7:52 PM MST
Astronomical Twilight 4:32 AM MST 8:23 PM MST
Moon 9:39 AM MST (8/29) 9:10 PM MST (8/29)
Length of Visible Light 13h 48m
Length of Day
12h 57m
Tomorrow will be 1m 58s shorter.
Waxing Crescent, 18% of the Moon is Illuminated
Today
Waxing Crescent
Sep 2
First Quarter
Sep 8
Full
Sep 15
Last Quarter
Sep 24
New

Today's Extremes

State Highs State Lows

Community

WunderPhotos

Upload Photos

1,748,394 photos uploaded!

Nearby

Air Quality

  Air Quality AQ Index Pollutant
Yesterday Moderate
OZONE
Yesterday Good
PM10
Current Good
PM2.5
Friday Moderate
OZONE
Friday Good
PM10
Friday Good
CO
Saturday Moderate
OZONE
Saturday Good
PM10
Saturday Good
CO
Sunday Moderate
OZONE
Sunday Good
PM10
Sunday Good
CO

Snow Depth

Station Depth Elevation
Workman Creek 0 in 6900 ft

Earthquake Activity

City Distance Mag. Time & Date
No recent earthquake activity has been reported nearby.
Minimum magnitude displayed is 2.5.

Coastal Water Temperatures

Place Temperature
No Stations Reporting

Nearby Weather Stations